sensor_id;sensor_type;location;lat;lon;timestamp;P1;durP1;ratioP1;P2;durP2;ratioP2
17596;SDS011;8917;50.942;6.946;2023-11-19T00:01:36;1.07;;;1.00;;
17596;SDS011;8917;50.942;6.946;2023-11-19T00:04:03;1.20;;;1.13;;
17596;SDS011;8917;50.942;6.946;2023-11-19T00:06:31;2.90;;;1.13;;
17596;SDS011;8917;50.942;6.946;2023-11-19T00:09:02;1.33;;;1.10;;
17596;SDS011;8917;50.942;6.946;2023-11-19T00:11:29;1.27;;;1.10;;
17596;SDS011;8917;50.942;6.946;2023-11-19T00:13:59;1.20;;;0.93;;
17596;SDS011;8917;50.942;6.946;2023-11-19T00:16:33;1.00;;;0.90;;
17596;SDS011;8917;50.942;6.946;2023-11-19T00:19:00;1.03;;;0.93;;
17596;SDS011;8917;50.942;6.946;2023-11-19T00:21:29;1.27;;;1.07;;
17596;SDS011;8917;50.942;6.946;2023-11-19T00:23:59;1.10;;;1.00;;
17596;SDS011;8917;50.942;6.946;2023-11-19T00:26:27;1.03;;;1.00;;
17596;SDS011;8917;50.942;6.946;2023-11-19T00:28:54;1.97;;;1.20;;
17596;SDS011;8917;50.942;6.946;2023-11-19T00:31:22;0.97;;;0.90;;
17596;SDS011;8917;50.942;6.946;2023-11-19T00:33:52;1.30;;;1.10;;
17596;SDS011;8917;50.942;6.946;2023-11-19T00:36:20;1.43;;;1.20;;
17596;SDS011;8917;50.942;6.946;2023-11-19T00:38:49;1.17;;;1.07;;
17596;SDS011;8917;50.942;6.946;2023-11-19T00:41:19;1.10;;;1.00;;
17596;SDS011;8917;50.942;6.946;2023-11-19T00:43:46;1.00;;;0.90;;
17596;SDS011;8917;50.942;6.946;2023-11-19T00:46:14;2.30;;;1.10;;
17596;SDS011;8917;50.942;6.946;2023-11-19T00:48:41;1.10;;;1.00;;
17596;SDS011;8917;50.942;6.946;2023-11-19T00:51:08;1.13;;;0.90;;
17596;SDS011;8917;50.942;6.946;2023-11-19T00:53:36;1.33;;;1.20;;
17596;SDS011;8917;50.942;6.946;2023-11-19T00:56:03;1.30;;;0.93;;
17596;SDS011;8917;50.942;6.946;2023-11-19T00:58:32;1.87;;;1.10;;
17596;SDS011;8917;50.942;6.946;2023-11-19T01:00:59;0.90;;;0.90;;
17596;SDS011;8917;50.942;6.946;2023-11-19T01:03:26;2.63;;;1.30;;
17596;SDS011;8917;50.942;6.946;2023-11-19T01:05:54;2.63;;;1.10;;
17596;SDS011;8917;50.942;6.946;2023-11-19T01:08:21;1.60;;;1.23;;
17596;SDS011;8917;50.942;6.946;2023-11-19T01:10:49;1.47;;;1.07;;
17596;SDS011;8917;50.942;6.946;2023-11-19T01:13:16;1.50;;;1.30;;
17596;SDS011;8917;50.942;6.946;2023-11-19T01:15:45;1.37;;;0.97;;
17596;SDS011;8917;50.942;6.946;2023-11-19T01:18:13;2.23;;;1.10;;
17596;SDS011;8917;50.942;6.946;2023-11-19T01:20:40;2.40;;;1.10;;
17596;SDS011;8917;50.942;6.946;2023-11-19T01:23:07;2.30;;;1.37;;
17596;SDS011;8917;50.942;6.946;2023-11-19T01:25:34;3.30;;;2.43;;
17596;SDS011;8917;50.942;6.946;2023-11-19T01:28:03;3.83;;;2.50;;
17596;SDS011;8917;50.942;6.946;2023-11-19T01:30:30;2.83;;;2.50;;
17596;SDS011;8917;50.942;6.946;2023-11-19T01:32:59;3.33;;;2.03;;
17596;SDS011;8917;50.942;6.946;2023-11-19T01:35:26;3.00;;;2.27;;
17596;SDS011;8917;50.942;6.946;2023-11-19T01:37:53;2.57;;;1.63;;
17596;SDS011;8917;50.942;6.946;2023-11-19T01:40:23;2.53;;;1.70;;
17596;SDS011;8917;50.942;6.946;2023-11-19T01:42:50;3.07;;;1.90;;
17596;SDS011;8917;50.942;6.946;2023-11-19T01:45:21;4.13;;;1.90;;
17596;SDS011;8917;50.942;6.946;2023-11-19T01:47:49;1.67;;;1.27;;
17596;SDS011;8917;50.942;6.946;2023-11-19T01:50:19;1.50;;;1.40;;
17596;SDS011;8917;50.942;6.946;2023-11-19T01:52:47;2.57;;;1.23;;
17596;SDS011;8917;50.942;6.946;2023-11-19T01:55:14;2.30;;;1.53;;
17596;SDS011;8917;50.942;6.946;2023-11-19T01:57:41;3.80;;;1.77;;
17596;SDS011;8917;50.942;6.946;2023-11-19T02:00:09;2.17;;;1.67;;
17596;SDS011;8917;50.942;6.946;2023-11-19T02:02:37;3.60;;;1.47;;
17596;SDS011;8917;50.942;6.946;2023-11-19T02:05:05;3.57;;;1.70;;
17596;SDS011;8917;50.942;6.946;2023-11-19T02:07:34;5.20;;;2.00;;
17596;SDS011;8917;50.942;6.946;2023-11-19T02:10:01;4.67;;;2.33;;
17596;SDS011;8917;50.942;6.946;2023-11-19T02:12:30;4.80;;;2.40;;
17596;SDS011;8917;50.942;6.946;2023-11-19T02:14:58;7.83;;;2.30;;
17596;SDS011;8917;50.942;6.946;2023-11-19T02:17:27;7.83;;;2.10;;
17596;SDS011;8917;50.942;6.946;2023-11-19T02:19:56;5.43;;;1.83;;
17596;SDS011;8917;50.942;6.946;2023-11-19T02:22:23;4.17;;;1.80;;
17596;SDS011;8917;50.942;6.946;2023-11-19T02:24:54;5.93;;;2.17;;
17596;SDS011;8917;50.942;6.946;2023-11-19T02:27:27;4.73;;;1.70;;
17596;SDS011;8917;50.942;6.946;2023-11-19T02:29:58;5.07;;;2.17;;
17596;SDS011;8917;50.942;6.946;2023-11-19T02:32:27;4.50;;;2.07;;
17596;SDS011;8917;50.942;6.946;2023-11-19T02:34:55;6.40;;;2.30;;
17596;SDS011;8917;50.942;6.946;2023-11-19T02:37:23;4.27;;;2.30;;
17596;SDS011;8917;50.942;6.946;2023-11-19T02:39:51;4.10;;;2.10;;
17596;SDS011;8917;50.942;6.946;2023-11-19T02:42:18;5.77;;;2.50;;
17596;SDS011;8917;50.942;6.946;2023-11-19T02:44:45;5.83;;;2.63;;
17596;SDS011;8917;50.942;6.946;2023-11-19T02:47:15;9.97;;;2.63;;
17596;SDS011;8917;50.942;6.946;2023-11-19T02:49:42;5.20;;;2.20;;
17596;SDS011;8917;50.942;6.946;2023-11-19T02:52:09;5.40;;;2.33;;
17596;SDS011;8917;50.942;6.946;2023-11-19T02:54:36;6.07;;;2.20;;
17596;SDS011;8917;50.942;6.946;2023-11-19T02:57:04;6.27;;;2.50;;
17596;SDS011;8917;50.942;6.946;2023-11-19T02:59:33;4.47;;;2.10;;
17596;SDS011;8917;50.942;6.946;2023-11-19T03:02:04;7.33;;;2.23;;
17596;SDS011;8917;50.942;6.946;2023-11-19T03:04:33;4.60;;;2.10;;
17596;SDS011;8917;50.942;6.946;2023-11-19T03:07:00;6.07;;;1.83;;
17596;SDS011;8917;50.942;6.946;2023-11-19T03:09:28;3.27;;;2.00;;
17596;SDS011;8917;50.942;6.946;2023-11-19T03:11:55;4.57;;;2.00;;
17596;SDS011;8917;50.942;6.946;2023-11-19T03:14:22;5.83;;;2.10;;
17596;SDS011;8917;50.942;6.946;2023-11-19T03:16:49;7.53;;;2.73;;
17596;SDS011;8917;50.942;6.946;2023-11-19T03:19:17;6.23;;;2.50;;
17596;SDS011;8917;50.942;6.946;2023-11-19T03:21:47;5.63;;;1.90;;
17596;SDS011;8917;50.942;6.946;2023-11-19T03:24:14;7.63;;;3.00;;
17596;SDS011;8917;50.942;6.946;2023-11-19T03:26:42;4.37;;;2.00;;
17596;SDS011;8917;50.942;6.946;2023-11-19T03:29:09;6.23;;;2.47;;
17596;SDS011;8917;50.942;6.946;2023-11-19T03:31:36;7.73;;;2.40;;
17596;SDS011;8917;50.942;6.946;2023-11-19T03:34:08;6.93;;;2.13;;
17596;SDS011;8917;50.942;6.946;2023-11-19T03:36:35;5.53;;;2.40;;
17596;SDS011;8917;50.942;6.946;2023-11-19T03:39:04;5.83;;;1.97;;
17596;SDS011;8917;50.942;6.946;2023-11-19T03:41:31;4.80;;;1.70;;
17596;SDS011;8917;50.942;6.946;2023-11-19T03:43:58;8.70;;;2.20;;
17596;SDS011;8917;50.942;6.946;2023-11-19T03:46:26;11.23;;;2.73;;
17596;SDS011;8917;50.942;6.946;2023-11-19T03:48:54;6.37;;;2.10;;
17596;SDS011;8917;50.942;6.946;2023-11-19T03:51:22;7.83;;;2.20;;
17596;SDS011;8917;50.942;6.946;2023-11-19T03:53:49;5.23;;;1.93;;
17596;SDS011;8917;50.942;6.946;2023-11-19T03:56:17;3.97;;;1.80;;
17596;SDS011;8917;50.942;6.946;2023-11-19T03:58:46;5.77;;;1.90;;
17596;SDS011;8917;50.942;6.946;2023-11-19T04:01:13;7.33;;;2.20;;
17596;SDS011;8917;50.942;6.946;2023-11-19T04:03:40;6.60;;;2.20;;
17596;SDS011;8917;50.942;6.946;2023-11-19T04:06:07;6.20;;;2.23;;
17596;SDS011;8917;50.942;6.946;2023-11-19T04:08:34;7.43;;;2.00;;
17596;SDS011;8917;50.942;6.946;2023-11-19T04:11:02;5.40;;;2.20;;
17596;SDS011;8917;50.942;6.946;2023-11-19T04:13:31;8.53;;;2.73;;
17596;SDS011;8917;50.942;6.946;2023-11-19T04:15:58;6.97;;;2.17;;
17596;SDS011;8917;50.942;6.946;2023-11-19T04:18:26;6.83;;;2.40;;
17596;SDS011;8917;50.942;6.946;2023-11-19T04:20:53;5.27;;;2.00;;
17596;SDS011;8917;50.942;6.946;2023-11-19T04:23:21;5.60;;;2.00;;
17596;SDS011;8917;50.942;6.946;2023-11-19T04:25:50;7.40;;;2.50;;
17596;SDS011;8917;50.942;6.946;2023-11-19T04:28:17;10.63;;;2.70;;
17596;SDS011;8917;50.942;6.946;2023-11-19T04:30:45;5.67;;;2.57;;
17596;SDS011;8917;50.942;6.946;2023-11-19T04:33:12;8.87;;;2.80;;
17596;SDS011;8917;50.942;6.946;2023-11-19T04:35:40;10.60;;;2.77;;
17596;SDS011;8917;50.942;6.946;2023-11-19T04:38:07;10.30;;;2.73;;
17596;SDS011;8917;50.942;6.946;2023-11-19T04:40:34;10.50;;;2.40;;
17596;SDS011;8917;50.942;6.946;2023-11-19T04:43:02;7.87;;;2.30;;
17596;SDS011;8917;50.942;6.946;2023-11-19T04:45:30;10.47;;;3.27;;
17596;SDS011;8917;50.942;6.946;2023-11-19T04:47:59;12.10;;;2.20;;
17596;SDS011;8917;50.942;6.946;2023-11-19T04:50:26;15.10;;;3.00;;
17596;SDS011;8917;50.942;6.946;2023-11-19T04:52:53;10.00;;;2.63;;
17596;SDS011;8917;50.942;6.946;2023-11-19T04:55:21;9.00;;;2.83;;
17596;SDS011;8917;50.942;6.946;2023-11-19T04:57:48;11.80;;;2.87;;
17596;SDS011;8917;50.942;6.946;2023-11-19T05:00:15;8.43;;;2.40;;
17596;SDS011;8917;50.942;6.946;2023-11-19T05:02:42;12.17;;;3.70;;
17596;SDS011;8917;50.942;6.946;2023-11-19T05:05:11;8.00;;;2.80;;
17596;SDS011;8917;50.942;6.946;2023-11-19T05:07:38;10.27;;;2.20;;
17596;SDS011;8917;50.942;6.946;2023-11-19T05:10:06;10.90;;;2.83;;
17596;SDS011;8917;50.942;6.946;2023-11-19T05:12:33;8.73;;;2.67;;
17596;SDS011;8917;50.942;6.946;2023-11-19T05:15:00;6.10;;;2.23;;
17596;SDS011;8917;50.942;6.946;2023-11-19T05:17:28;7.83;;;2.07;;
17596;SDS011;8917;50.942;6.946;2023-11-19T05:19:55;8.73;;;2.83;;
17596;SDS011;8917;50.942;6.946;2023-11-19T05:22:24;8.47;;;2.93;;
17596;SDS011;8917;50.942;6.946;2023-11-19T05:24:52;9.90;;;2.40;;
17596;SDS011;8917;50.942;6.946;2023-11-19T05:27:20;7.43;;;2.53;;
17596;SDS011;8917;50.942;6.946;2023-11-19T05:29:48;8.80;;;2.40;;
17596;SDS011;8917;50.942;6.946;2023-11-19T05:32:16;10.87;;;2.53;;
17596;SDS011;8917;50.942;6.946;2023-11-19T05:34:43;11.60;;;2.90;;
17596;SDS011;8917;50.942;6.946;2023-11-19T05:37:10;8.97;;;2.30;;
17596;SDS011;8917;50.942;6.946;2023-11-19T05:39:38;11.37;;;2.63;;
17596;SDS011;8917;50.942;6.946;2023-11-19T05:42:06;12.73;;;2.50;;
17596;SDS011;8917;50.942;6.946;2023-11-19T05:44:34;11.50;;;2.73;;
17596;SDS011;8917;50.942;6.946;2023-11-19T05:47:03;10.47;;;2.67;;
17596;SDS011;8917;50.942;6.946;2023-11-19T05:49:30;11.23;;;3.03;;
17596;SDS011;8917;50.942;6.946;2023-11-19T05:51:57;7.77;;;2.63;;
17596;SDS011;8917;50.942;6.946;2023-11-19T05:54:24;12.03;;;3.40;;
17596;SDS011;8917;50.942;6.946;2023-11-19T05:56:53;10.43;;;2.87;;
17596;SDS011;8917;50.942;6.946;2023-11-19T05:59:20;9.90;;;3.00;;
17596;SDS011;8917;50.942;6.946;2023-11-19T06:01:47;10.83;;;2.57;;
17596;SDS011;8917;50.942;6.946;2023-11-19T06:04:15;11.83;;;2.80;;
17596;SDS011;8917;50.942;6.946;2023-11-19T06:06:42;11.03;;;3.10;;
17596;SDS011;8917;50.942;6.946;2023-11-19T06:09:09;10.53;;;2.97;;
17596;SDS011;8917;50.942;6.946;2023-11-19T06:11:37;12.20;;;2.80;;
17596;SDS011;8917;50.942;6.946;2023-11-19T06:14:06;13.17;;;3.43;;
17596;SDS011;8917;50.942;6.946;2023-11-19T06:16:33;10.50;;;2.80;;
17596;SDS011;8917;50.942;6.946;2023-11-19T06:19:01;13.63;;;3.63;;
17596;SDS011;8917;50.942;6.946;2023-11-19T06:21:29;11.20;;;2.90;;
17596;SDS011;8917;50.942;6.946;2023-11-19T06:23:56;11.43;;;2.90;;
17596;SDS011;8917;50.942;6.946;2023-11-19T06:26:24;13.17;;;3.53;;
17596;SDS011;8917;50.942;6.946;2023-11-19T06:28:51;13.70;;;3.37;;
17596;SDS011;8917;50.942;6.946;2023-11-19T06:31:20;14.63;;;3.40;;
17596;SDS011;8917;50.942;6.946;2023-11-19T06:33:47;17.10;;;3.53;;
17596;SDS011;8917;50.942;6.946;2023-11-19T06:36:15;13.03;;;2.90;;
17596;SDS011;8917;50.942;6.946;2023-11-19T06:38:42;16.10;;;3.67;;
17596;SDS011;8917;50.942;6.946;2023-11-19T06:41:09;13.13;;;2.97;;
17596;SDS011;8917;50.942;6.946;2023-11-19T06:43:37;10.97;;;2.60;;
17596;SDS011;8917;50.942;6.946;2023-11-19T06:46:04;13.87;;;3.23;;
17596;SDS011;8917;50.942;6.946;2023-11-19T06:48:33;16.80;;;3.70;;
17596;SDS011;8917;50.942;6.946;2023-11-19T06:51:00;16.90;;;3.50;;
17596;SDS011;8917;50.942;6.946;2023-11-19T06:53:27;10.37;;;2.63;;
17596;SDS011;8917;50.942;6.946;2023-11-19T06:55:57;16.87;;;4.00;;
17596;SDS011;8917;50.942;6.946;2023-11-19T06:58:25;9.60;;;2.83;;
17596;SDS011;8917;50.942;6.946;2023-11-19T07:00:52;13.33;;;3.43;;
17596;SDS011;8917;50.942;6.946;2023-11-19T07:03:19;10.07;;;3.23;;
17596;SDS011;8917;50.942;6.946;2023-11-19T07:05:48;10.77;;;3.07;;
17596;SDS011;8917;50.942;6.946;2023-11-19T07:08:15;13.83;;;3.67;;
17596;SDS011;8917;50.942;6.946;2023-11-19T07:10:42;12.47;;;2.93;;
17596;SDS011;8917;50.942;6.946;2023-11-19T07:13:12;17.27;;;3.83;;
17596;SDS011;8917;50.942;6.946;2023-11-19T07:15:40;10.20;;;2.90;;
17596;SDS011;8917;50.942;6.946;2023-11-19T07:18:07;11.93;;;3.07;;
17596;SDS011;8917;50.942;6.946;2023-11-19T07:20:36;11.57;;;3.20;;
17596;SDS011;8917;50.942;6.946;2023-11-19T07:23:06;12.27;;;2.73;;
17596;SDS011;8917;50.942;6.946;2023-11-19T07:25:33;16.17;;;3.30;;
17596;SDS011;8917;50.942;6.946;2023-11-19T07:28:02;20.13;;;3.37;;
17596;SDS011;8917;50.942;6.946;2023-11-19T07:30:29;11.27;;;2.97;;
17596;SDS011;8917;50.942;6.946;2023-11-19T07:32:56;9.77;;;3.27;;
17596;SDS011;8917;50.942;6.946;2023-11-19T07:35:24;16.80;;;3.43;;
17596;SDS011;8917;50.942;6.946;2023-11-19T07:37:51;13.37;;;3.20;;
17596;SDS011;8917;50.942;6.946;2023-11-19T07:40:19;12.77;;;3.10;;
17596;SDS011;8917;50.942;6.946;2023-11-19T07:42:46;13.67;;;3.73;;
17596;SDS011;8917;50.942;6.946;2023-11-19T07:45:14;13.70;;;3.60;;
17596;SDS011;8917;50.942;6.946;2023-11-19T07:47:41;16.70;;;3.47;;
17596;SDS011;8917;50.942;6.946;2023-11-19T07:50:09;12.77;;;3.20;;
17596;SDS011;8917;50.942;6.946;2023-11-19T07:52:38;16.00;;;3.57;;
17596;SDS011;8917;50.942;6.946;2023-11-19T07:55:05;11.37;;;3.70;;
17596;SDS011;8917;50.942;6.946;2023-11-19T07:57:34;12.97;;;3.93;;
17596;SDS011;8917;50.942;6.946;2023-11-19T08:00:02;16.67;;;4.23;;
17596;SDS011;8917;50.942;6.946;2023-11-19T08:02:29;23.23;;;4.03;;
17596;SDS011;8917;50.942;6.946;2023-11-19T08:04:56;13.00;;;3.70;;
17596;SDS011;8917;50.942;6.946;2023-11-19T08:07:23;14.13;;;3.33;;
17596;SDS011;8917;50.942;6.946;2023-11-19T08:09:51;14.50;;;4.10;;
17596;SDS011;8917;50.942;6.946;2023-11-19T08:12:18;19.70;;;4.47;;
17596;SDS011;8917;50.942;6.946;2023-11-19T08:14:47;15.43;;;4.23;;
17596;SDS011;8917;50.942;6.946;2023-11-19T08:17:14;16.53;;;4.40;;
17596;SDS011;8917;50.942;6.946;2023-11-19T08:19:42;11.40;;;3.77;;
17596;SDS011;8917;50.942;6.946;2023-11-19T08:22:09;14.27;;;3.50;;
17596;SDS011;8917;50.942;6.946;2023-11-19T08:24:36;12.60;;;3.63;;
17596;SDS011;8917;50.942;6.946;2023-11-19T08:27:03;17.73;;;4.30;;
17596;SDS011;8917;50.942;6.946;2023-11-19T08:29:31;12.90;;;3.27;;
17596;SDS011;8917;50.942;6.946;2023-11-19T08:32:01;17.30;;;3.83;;
17596;SDS011;8917;50.942;6.946;2023-11-19T08:34:28;10.57;;;3.23;;
17596;SDS011;8917;50.942;6.946;2023-11-19T08:36:55;12.83;;;2.93;;
17596;SDS011;8917;50.942;6.946;2023-11-19T08:39:23;11.93;;;3.10;;
17596;SDS011;8917;50.942;6.946;2023-11-19T08:41:50;13.70;;;3.63;;
17596;SDS011;8917;50.942;6.946;2023-11-19T08:44:17;13.97;;;3.60;;
17596;SDS011;8917;50.942;6.946;2023-11-19T08:46:48;11.83;;;3.27;;
17596;SDS011;8917;50.942;6.946;2023-11-19T08:49:16;13.77;;;3.50;;
17596;SDS011;8917;50.942;6.946;2023-11-19T08:51:43;13.30;;;3.43;;
17596;SDS011;8917;50.942;6.946;2023-11-19T08:54:11;13.53;;;3.40;;
17596;SDS011;8917;50.942;6.946;2023-11-19T08:56:39;16.67;;;4.00;;
17596;SDS011;8917;50.942;6.946;2023-11-19T08:59:06;18.13;;;4.13;;
17596;SDS011;8917;50.942;6.946;2023-11-19T09:01:33;18.63;;;4.57;;
17596;SDS011;8917;50.942;6.946;2023-11-19T09:04:01;17.47;;;4.50;;
17596;SDS011;8917;50.942;6.946;2023-11-19T09:06:29;14.13;;;3.87;;
17596;SDS011;8917;50.942;6.946;2023-11-19T09:08:57;14.23;;;3.60;;
17596;SDS011;8917;50.942;6.946;2023-11-19T09:11:27;16.30;;;4.40;;
17596;SDS011;8917;50.942;6.946;2023-11-19T09:13:55;13.93;;;3.97;;
17596;SDS011;8917;50.942;6.946;2023-11-19T09:16:22;17.43;;;3.97;;
17596;SDS011;8917;50.942;6.946;2023-11-19T09:18:50;18.43;;;4.00;;
17596;SDS011;8917;50.942;6.946;2023-11-19T09:21:17;12.07;;;3.73;;
17596;SDS011;8917;50.942;6.946;2023-11-19T09:23:46;19.17;;;4.70;;
17596;SDS011;8917;50.942;6.946;2023-11-19T09:26:14;15.93;;;3.90;;
17596;SDS011;8917;50.942;6.946;2023-11-19T09:28:41;15.80;;;3.67;;
17596;SDS011;8917;50.942;6.946;2023-11-19T09:31:15;15.70;;;4.10;;
17596;SDS011;8917;50.942;6.946;2023-11-19T09:33:42;12.73;;;3.53;;
17596;SDS011;8917;50.942;6.946;2023-11-19T09:36:10;14.83;;;3.33;;
17596;SDS011;8917;50.942;6.946;2023-11-19T09:38:39;19.50;;;4.20;;
17596;SDS011;8917;50.942;6.946;2023-11-19T09:41:07;15.10;;;4.20;;
17596;SDS011;8917;50.942;6.946;2023-11-19T09:43:35;15.57;;;3.93;;
17596;SDS011;8917;50.942;6.946;2023-11-19T09:46:04;20.40;;;4.43;;
17596;SDS011;8917;50.942;6.946;2023-11-19T09:48:32;15.93;;;3.73;;
17596;SDS011;8917;50.942;6.946;2023-11-19T09:51:00;14.57;;;3.57;;
17596;SDS011;8917;50.942;6.946;2023-11-19T09:53:27;14.70;;;3.90;;
17596;SDS011;8917;50.942;6.946;2023-11-19T09:55:55;16.70;;;5.10;;
17596;SDS011;8917;50.942;6.946;2023-11-19T09:58:24;17.33;;;3.90;;
17596;SDS011;8917;50.942;6.946;2023-11-19T10:00:51;17.67;;;3.87;;
17596;SDS011;8917;50.942;6.946;2023-11-19T10:03:18;16.77;;;3.50;;
17596;SDS011;8917;50.942;6.946;2023-11-19T10:05:45;13.07;;;4.20;;
17596;SDS011;8917;50.942;6.946;2023-11-19T10:08:13;18.70;;;4.00;;
17596;SDS011;8917;50.942;6.946;2023-11-19T10:10:41;19.00;;;5.00;;
17596;SDS011;8917;50.942;6.946;2023-11-19T10:13:08;19.67;;;4.47;;
17596;SDS011;8917;50.942;6.946;2023-11-19T10:15:37;16.63;;;3.80;;
17596;SDS011;8917;50.942;6.946;2023-11-19T10:18:04;16.13;;;4.73;;
17596;SDS011;8917;50.942;6.946;2023-11-19T10:20:34;14.60;;;3.47;;
17596;SDS011;8917;50.942;6.946;2023-11-19T10:23:03;21.30;;;4.30;;
17596;SDS011;8917;50.942;6.946;2023-11-19T10:25:30;11.93;;;3.87;;
17596;SDS011;8917;50.942;6.946;2023-11-19T10:27:57;18.40;;;4.07;;
17596;SDS011;8917;50.942;6.946;2023-11-19T10:30:26;16.93;;;3.83;;
17596;SDS011;8917;50.942;6.946;2023-11-19T10:33:04;12.70;;;3.53;;
17596;SDS011;8917;50.942;6.946;2023-11-19T10:35:32;14.00;;;3.97;;
17596;SDS011;8917;50.942;6.946;2023-11-19T10:38:00;11.90;;;2.63;;
17596;SDS011;8917;50.942;6.946;2023-11-19T10:40:37;17.60;;;4.03;;
17596;SDS011;8917;50.942;6.946;2023-11-19T10:43:06;13.40;;;3.40;;
17596;SDS011;8917;50.942;6.946;2023-11-19T10:45:33;13.47;;;3.63;;
17596;SDS011;8917;50.942;6.946;2023-11-19T10:48:02;14.80;;;3.90;;
17596;SDS011;8917;50.942;6.946;2023-11-19T10:50:33;18.27;;;4.27;;
17596;SDS011;8917;50.942;6.946;2023-11-19T10:53:01;15.10;;;3.67;;
17596;SDS011;8917;50.942;6.946;2023-11-19T10:55:29;13.43;;;3.67;;
17596;SDS011;8917;50.942;6.946;2023-11-19T10:57:58;18.23;;;3.73;;
17596;SDS011;8917;50.942;6.946;2023-11-19T11:00:26;17.67;;;4.93;;
17596;SDS011;8917;50.942;6.946;2023-11-19T11:02:54;18.47;;;5.60;;
17596;SDS011;8917;50.942;6.946;2023-11-19T11:05:23;19.07;;;5.83;;
17596;SDS011;8917;50.942;6.946;2023-11-19T11:07:52;12.90;;;3.57;;
17596;SDS011;8917;50.942;6.946;2023-11-19T11:10:23;13.00;;;3.53;;
17596;SDS011;8917;50.942;6.946;2023-11-19T11:12:52;11.43;;;2.80;;
17596;SDS011;8917;50.942;6.946;2023-11-19T11:15:24;16.03;;;4.37;;
17596;SDS011;8917;50.942;6.946;2023-11-19T11:17:54;11.13;;;3.70;;
17596;SDS011;8917;50.942;6.946;2023-11-19T11:20:24;11.73;;;3.03;;
17596;SDS011;8917;50.942;6.946;2023-11-19T11:22:57;13.20;;;3.53;;
17596;SDS011;8917;50.942;6.946;2023-11-19T11:25:31;13.57;;;3.77;;
17596;SDS011;8917;50.942;6.946;2023-11-19T11:28:08;14.43;;;3.63;;
17596;SDS011;8917;50.942;6.946;2023-11-19T11:30:41;18.10;;;4.57;;
17596;SDS011;8917;50.942;6.946;2023-11-19T11:33:17;19.37;;;4.10;;
17596;SDS011;8917;50.942;6.946;2023-11-19T11:35:49;13.00;;;3.67;;
17596;SDS011;8917;50.942;6.946;2023-11-19T11:38:22;15.70;;;3.80;;
17596;SDS011;8917;50.942;6.946;2023-11-19T11:43:46;14.77;;;3.60;;
17596;SDS011;8917;50.942;6.946;2023-11-19T11:49:01;12.87;;;3.40;;
17596;SDS011;8917;50.942;6.946;2023-11-19T11:54:14;12.90;;;3.53;;
17596;SDS011;8917;50.942;6.946;2023-11-19T11:57:00;13.03;;;3.93;;
17596;SDS011;8917;50.942;6.946;2023-11-19T11:59:31;13.43;;;3.10;;
17596;SDS011;8917;50.942;6.946;2023-11-19T12:01:58;10.10;;;3.23;;
17596;SDS011;8917;50.942;6.946;2023-11-19T12:04:26;12.33;;;3.43;;
17596;SDS011;8917;50.942;6.946;2023-11-19T12:07:02;11.70;;;3.00;;
17596;SDS011;8917;50.942;6.946;2023-11-19T12:09:32;10.53;;;3.03;;
17596;SDS011;8917;50.942;6.946;2023-11-19T12:12:07;12.27;;;2.93;;
17596;SDS011;8917;50.942;6.946;2023-11-19T12:17:36;12.60;;;3.07;;
17596;SDS011;8917;50.942;6.946;2023-11-19T12:20:05;9.03;;;2.73;;
17596;SDS011;8917;50.942;6.946;2023-11-19T12:22:34;9.00;;;3.00;;
17596;SDS011;8917;50.942;6.946;2023-11-19T12:25:04;11.87;;;3.70;;
17596;SDS011;8917;50.942;6.946;2023-11-19T12:27:32;13.13;;;3.33;;
17596;SDS011;8917;50.942;6.946;2023-11-19T12:30:00;12.97;;;4.27;;
17596;SDS011;8917;50.942;6.946;2023-11-19T12:32:36;14.07;;;3.50;;
17596;SDS011;8917;50.942;6.946;2023-11-19T12:35:04;12.67;;;3.33;;
17596;SDS011;8917;50.942;6.946;2023-11-19T12:37:40;15.43;;;3.13;;
17596;SDS011;8917;50.942;6.946;2023-11-19T12:40:12;11.13;;;2.80;;
17596;SDS011;8917;50.942;6.946;2023-11-19T12:42:40;11.17;;;3.57;;
17596;SDS011;8917;50.942;6.946;2023-11-19T12:45:07;11.33;;;3.63;;
17596;SDS011;8917;50.942;6.946;2023-11-19T12:47:36;13.37;;;3.07;;
17596;SDS011;8917;50.942;6.946;2023-11-19T12:50:03;12.80;;;3.73;;
17596;SDS011;8917;50.942;6.946;2023-11-19T12:52:31;10.60;;;3.17;;
17596;SDS011;8917;50.942;6.946;2023-11-19T12:54:59;12.40;;;3.30;;
17596;SDS011;8917;50.942;6.946;2023-11-19T12:57:37;12.90;;;2.87;;
17596;SDS011;8917;50.942;6.946;2023-11-19T13:00:05;13.07;;;2.93;;
17596;SDS011;8917;50.942;6.946;2023-11-19T13:02:46;12.17;;;2.83;;
17596;SDS011;8917;50.942;6.946;2023-11-19T13:05:20;11.70;;;3.00;;
17596;SDS011;8917;50.942;6.946;2023-11-19T13:07:47;9.87;;;2.57;;
17596;SDS011;8917;50.942;6.946;2023-11-19T13:10:15;14.07;;;3.57;;
17596;SDS011;8917;50.942;6.946;2023-11-19T13:12:43;10.57;;;3.07;;
17596;SDS011;8917;50.942;6.946;2023-11-19T13:15:22;12.13;;;3.10;;
17596;SDS011;8917;50.942;6.946;2023-11-19T13:17:51;8.00;;;2.67;;
17596;SDS011;8917;50.942;6.946;2023-11-19T13:20:19;9.77;;;2.87;;
17596;SDS011;8917;50.942;6.946;2023-11-19T13:22:53;10.30;;;3.13;;
17596;SDS011;8917;50.942;6.946;2023-11-19T13:25:20;13.67;;;3.30;;
17596;SDS011;8917;50.942;6.946;2023-11-19T13:27:49;8.90;;;3.23;;
17596;SDS011;8917;50.942;6.946;2023-11-19T13:30:16;14.80;;;3.43;;
17596;SDS011;8917;50.942;6.946;2023-11-19T13:32:44;16.60;;;4.27;;
17596;SDS011;8917;50.942;6.946;2023-11-19T13:35:11;13.23;;;3.40;;
17596;SDS011;8917;50.942;6.946;2023-11-19T13:37:39;10.50;;;3.60;;
17596;SDS011;8917;50.942;6.946;2023-11-19T13:40:06;12.90;;;3.50;;
17596;SDS011;8917;50.942;6.946;2023-11-19T13:42:35;17.23;;;4.27;;
17596;SDS011;8917;50.942;6.946;2023-11-19T13:45:08;11.07;;;3.53;;
17596;SDS011;8917;50.942;6.946;2023-11-19T13:47:37;16.83;;;4.10;;
17596;SDS011;8917;50.942;6.946;2023-11-19T13:50:06;10.73;;;3.00;;
17596;SDS011;8917;50.942;6.946;2023-11-19T13:52:34;14.80;;;3.73;;
17596;SDS011;8917;50.942;6.946;2023-11-19T13:55:03;13.67;;;3.43;;
17596;SDS011;8917;50.942;6.946;2023-11-19T13:57:31;11.97;;;3.97;;
17596;SDS011;8917;50.942;6.946;2023-11-19T13:59:59;15.10;;;3.97;;
17596;SDS011;8917;50.942;6.946;2023-11-19T14:02:31;17.13;;;4.83;;
17596;SDS011;8917;50.942;6.946;2023-11-19T14:05:01;18.47;;;3.63;;
17596;SDS011;8917;50.942;6.946;2023-11-19T14:07:28;12.17;;;3.23;;
17596;SDS011;8917;50.942;6.946;2023-11-19T14:09:59;9.50;;;3.40;;
17596;SDS011;8917;50.942;6.946;2023-11-19T14:12:28;15.60;;;3.73;;
17596;SDS011;8917;50.942;6.946;2023-11-19T14:14:55;11.80;;;3.00;;
17596;SDS011;8917;50.942;6.946;2023-11-19T14:17:29;12.97;;;3.33;;
17596;SDS011;8917;50.942;6.946;2023-11-19T14:19:56;13.60;;;3.70;;
17596;SDS011;8917;50.942;6.946;2023-11-19T14:22:24;13.47;;;3.53;;
17596;SDS011;8917;50.942;6.946;2023-11-19T14:24:55;10.90;;;5.83;;
17596;SDS011;8917;50.942;6.946;2023-11-19T14:27:23;13.77;;;3.90;;
17596;SDS011;8917;50.942;6.946;2023-11-19T14:29:51;13.77;;;3.87;;
17596;SDS011;8917;50.942;6.946;2023-11-19T14:32:19;12.57;;;3.50;;
17596;SDS011;8917;50.942;6.946;2023-11-19T14:34:47;12.03;;;3.73;;
17596;SDS011;8917;50.942;6.946;2023-11-19T14:37:14;13.40;;;4.63;;
17596;SDS011;8917;50.942;6.946;2023-11-19T14:39:42;12.03;;;3.97;;
17596;SDS011;8917;50.942;6.946;2023-11-19T14:42:09;9.60;;;3.00;;
17596;SDS011;8917;50.942;6.946;2023-11-19T14:44:36;12.43;;;4.33;;
17596;SDS011;8917;50.942;6.946;2023-11-19T14:47:04;15.63;;;6.13;;
17596;SDS011;8917;50.942;6.946;2023-11-19T14:49:31;11.67;;;4.17;;
17596;SDS011;8917;50.942;6.946;2023-11-19T14:52:03;13.40;;;4.50;;
17596;SDS011;8917;50.942;6.946;2023-11-19T14:54:30;15.30;;;3.43;;
17596;SDS011;8917;50.942;6.946;2023-11-19T14:56:58;9.70;;;3.33;;
17596;SDS011;8917;50.942;6.946;2023-11-19T14:59:25;10.80;;;3.13;;
17596;SDS011;8917;50.942;6.946;2023-11-19T15:01:53;11.03;;;3.30;;
17596;SDS011;8917;50.942;6.946;2023-11-19T15:04:20;10.93;;;4.07;;
17596;SDS011;8917;50.942;6.946;2023-11-19T15:06:49;10.53;;;4.03;;
17596;SDS011;8917;50.942;6.946;2023-11-19T15:09:18;14.50;;;4.23;;
17596;SDS011;8917;50.942;6.946;2023-11-19T15:11:46;10.50;;;3.40;;